createdAt,value
2022-10-07T00:00:57.600Z,3.20
2022-10-07T00:06:07.177Z,3.10
2022-10-07T00:11:13.634Z,3.23
2022-10-07T00:16:18.496Z,3.20
2022-10-07T00:21:19.616Z,3.37
2022-10-07T00:26:23.224Z,3.40
2022-10-07T00:31:30.291Z,3.60
2022-10-07T00:36:34.132Z,3.43
2022-10-07T00:41:38.762Z,4.60
2022-10-07T00:46:40.290Z,4.40
2022-10-07T00:51:42.834Z,3.73
2022-10-07T00:56:46.261Z,3.67
2022-10-07T01:01:47.687Z,3.73
2022-10-07T01:06:48.919Z,3.40
2022-10-07T01:11:52.950Z,3.93
2022-10-07T01:17:07.357Z,3.73
2022-10-07T01:22:51.310Z,3.87
2022-10-07T01:28:20.280Z,3.40
2022-10-07T01:33:27.101Z,3.30
2022-10-07T01:38:32.981Z,3.50
2022-10-07T01:43:37.794Z,3.23
2022-10-07T01:48:38.977Z,3.73
2022-10-07T01:53:43.673Z,3.80
2022-10-07T01:59:04.716Z,3.67
2022-10-07T02:04:30.391Z,3.23
2022-10-07T02:09:56.235Z,3.80
2022-10-07T02:15:05.060Z,3.33
2022-10-07T02:20:10.933Z,4.07
2022-10-07T02:25:14.521Z,3.83
2022-10-07T02:30:19.386Z,4.37
2022-10-07T02:35:31.408Z,3.83
2022-10-07T02:40:39.162Z,3.20
2022-10-07T02:46:12.279Z,3.77
2022-10-07T02:51:21.024Z,3.63
2022-10-07T02:56:25.859Z,3.67
2022-10-07T03:01:31.237Z,3.67
2022-10-07T03:06:35.088Z,2.93
2022-10-07T03:11:38.270Z,3.57
2022-10-07T03:16:39.706Z,3.73
2022-10-07T03:21:41.086Z,3.30
2022-10-07T03:26:42.986Z,2.60
2022-10-07T03:31:46.629Z,4.10
2022-10-07T03:36:48.050Z,3.10
2022-10-07T03:41:50.898Z,3.10
2022-10-07T03:46:52.112Z,2.40
2022-10-07T03:51:56.509Z,2.80
2022-10-07T03:56:58.238Z,2.50
2022-10-07T04:02:00.389Z,3.97
2022-10-07T04:07:01.790Z,2.70
2022-10-07T04:12:03.459Z,3.20
2022-10-07T04:17:05.338Z,3.00
2022-10-07T04:22:08.918Z,3.27
2022-10-07T04:27:19.498Z,3.10
2022-10-07T04:32:33.319Z,3.40
2022-10-07T04:37:34.655Z,2.43
2022-10-07T04:42:54.256Z,3.07
2022-10-07T04:47:55.620Z,3.23
2022-10-07T04:52:58.139Z,3.30
2022-10-07T04:58:05.445Z,3.33
2022-10-07T05:03:06.677Z,3.40
2022-10-07T05:08:08.315Z,3.67
2022-10-07T05:13:12.457Z,3.00
2022-10-07T05:18:15.191Z,2.90
2022-10-07T05:23:18.903Z,3.90
2022-10-07T05:28:23.037Z,3.17
2022-10-07T05:33:24.314Z,3.77
2022-10-07T05:38:26.149Z,3.43
2022-10-07T05:43:30.083Z,3.50
2022-10-07T05:48:38.742Z,3.97
2022-10-07T05:53:42.288Z,3.20
2022-10-07T05:58:45.418Z,3.80
2022-10-07T06:03:52.908Z,3.57
2022-10-07T06:09:15.745Z,3.63
2022-10-07T06:14:17.793Z,3.60
2022-10-07T06:19:21.785Z,4.40
2022-10-07T06:24:25.072Z,4.03
2022-10-07T06:29:26.271Z,4.40
2022-10-07T06:34:27.557Z,3.50
2022-10-07T06:39:29.873Z,4.00
2022-10-07T06:44:31.342Z,3.90
2022-10-07T06:49:34.862Z,3.57
2022-10-07T06:54:36.254Z,4.30
2022-10-07T06:59:37.919Z,4.03
2022-10-07T07:04:45.619Z,3.70
2022-10-07T07:09:47.079Z,3.20
2022-10-07T07:14:48.599Z,3.70
2022-10-07T07:19:53.132Z,4.33
2022-10-07T07:24:54.529Z,2.90
2022-10-07T07:29:57.906Z,3.33
2022-10-07T07:35:01.375Z,3.63
2022-10-07T07:40:04.175Z,3.37
2022-10-07T07:45:08.101Z,3.57
2022-10-07T07:50:09.809Z,3.33
2022-10-07T07:55:11.081Z,3.60
2022-10-07T08:00:15.339Z,3.93
2022-10-07T08:05:25.205Z,3.20
2022-10-07T08:10:30.220Z,3.33
2022-10-07T08:15:31.734Z,2.50
2022-10-07T08:20:33.062Z,3.17
2022-10-07T08:25:35.059Z,2.60
2022-10-07T08:30:39.459Z,2.95
2022-10-07T08:35:40.730Z,2.30
2022-10-07T08:40:49.600Z,3.03
2022-10-07T08:45:52.108Z,2.40
2022-10-07T08:51:04.385Z,2.97
2022-10-07T08:56:15.823Z,2.22
2022-10-07T09:01:31.867Z,2.88
2022-10-07T09:06:38.540Z,2.10
2022-10-07T09:11:42.641Z,2.65
2022-10-07T09:16:46.522Z,2.83
2022-10-07T09:21:49.589Z,3.00
2022-10-07T09:26:54.461Z,2.30
2022-10-07T09:31:57.307Z,2.42
2022-10-07T09:37:16.511Z,3.05
2022-10-07T09:42:37.719Z,2.55
2022-10-07T09:47:41.244Z,2.40
2022-10-07T09:52:55.011Z,2.75
2022-10-07T09:58:01.450Z,3.22
2022-10-07T10:03:07.019Z,3.00
2022-10-07T10:08:17.455Z,2.60
2022-10-07T10:13:39.932Z,2.90
2022-10-07T10:18:52.457Z,2.80
2022-10-07T10:24:05.189Z,2.45
2022-10-07T10:30:04.775Z,3.30
2022-10-07T10:35:26.903Z,2.10
2022-10-07T10:40:34.566Z,2.10
2022-10-07T10:46:12.982Z,2.13
2022-10-07T10:51:33.887Z,2.25
2022-10-07T10:56:57.622Z,2.13
2022-10-07T11:02:21.617Z,2.20
2022-10-07T11:07:28.840Z,2.40
2022-10-07T11:12:40.674Z,2.47
2022-10-07T11:17:43.113Z,1.90
2022-10-07T11:22:50.222Z,2.20
2022-10-07T11:27:59.787Z,1.95
2022-10-07T11:33:19.310Z,2.15
2022-10-07T11:38:28.562Z,2.45
2022-10-07T11:43:46.191Z,1.85
2022-10-07T11:49:21.482Z,2.05
2022-10-07T11:54:26.802Z,2.22
2022-10-07T11:59:42.694Z,2.28
2022-10-07T12:04:43.922Z,2.47
2022-10-07T12:09:53.658Z,2.15
2022-10-07T12:15:03.183Z,2.22
2022-10-07T12:20:45.527Z,2.20
2022-10-07T12:25:49.162Z,2.00
2022-10-07T12:30:52.738Z,2.10
2022-10-07T12:35:54.943Z,1.65
2022-10-07T12:41:06.894Z,2.03
2022-10-07T12:46:16.223Z,1.95
2022-10-07T12:51:25.397Z,2.05
2022-10-07T12:56:29.892Z,2.00
2022-10-07T13:01:56.635Z,2.08
2022-10-07T13:07:22.499Z,2.85
2022-10-07T13:12:34.263Z,1.70
2022-10-07T13:17:47.528Z,1.77
2022-10-07T13:22:49.268Z,1.50
2022-10-07T13:27:59.964Z,2.22
2022-10-07T13:33:37.587Z,2.30
2022-10-07T13:38:38.674Z,2.45
2022-10-07T13:43:43.012Z,1.55
2022-10-07T13:48:45.773Z,2.08
2022-10-07T13:53:59.295Z,1.65
2022-10-07T13:59:01.526Z,2.03
2022-10-07T14:04:11.254Z,2.22
2022-10-07T14:09:17.746Z,2.00
2022-10-07T14:14:32.656Z,2.03
2022-10-07T14:19:34.452Z,2.10
2022-10-07T14:24:35.587Z,1.85
2022-10-07T14:29:37.256Z,2.33
2022-10-07T14:35:01.454Z,1.83
2022-10-07T14:40:02.945Z,2.35
2022-10-07T14:45:07.507Z,2.45
2022-10-07T14:50:12.781Z,2.00
2022-10-07T14:55:34.091Z,2.53
2022-10-07T15:00:39.476Z,2.35
2022-10-07T15:05:41.077Z,2.00
2022-10-07T15:10:42.750Z,2.15
2022-10-07T15:15:45.320Z,1.73
2022-10-07T15:20:54.102Z,2.08
2022-10-07T15:25:55.241Z,1.90
2022-10-07T15:31:02.521Z,2.00
2022-10-07T15:36:04.359Z,1.80
2022-10-07T15:41:06.249Z,2.45
2022-10-07T15:46:07.581Z,2.03
2022-10-07T15:51:08.736Z,2.70
2022-10-07T15:56:09.817Z,1.85
2022-10-07T16:01:11.738Z,2.00
2022-10-07T16:06:20.783Z,1.50
2022-10-07T16:11:22.021Z,2.13
2022-10-07T16:16:25.606Z,1.95
2022-10-07T16:21:32.700Z,1.80
2022-10-07T16:26:36.495Z,2.55
2022-10-07T16:31:39.762Z,1.83
2022-10-07T16:36:45.517Z,1.90
2022-10-07T16:41:48.842Z,1.97
2022-10-07T16:46:49.967Z,3.07
2022-10-07T16:51:52.294Z,2.17
2022-10-07T16:56:53.517Z,2.20
2022-10-07T17:01:56.218Z,1.90
2022-10-07T17:06:57.730Z,1.93
2022-10-07T17:11:58.829Z,2.30
2022-10-07T17:17:00.029Z,2.83
2022-10-07T17:22:03.264Z,2.30
2022-10-07T17:27:07.765Z,2.40
2022-10-07T17:32:09.443Z,2.17
2022-10-07T17:37:10.511Z,2.13
2022-10-07T17:42:11.754Z,2.53
2022-10-07T17:47:13.164Z,2.33
2022-10-07T17:52:14.570Z,2.13
2022-10-07T17:57:15.664Z,2.30
2022-10-07T18:02:17.269Z,2.70
2022-10-07T18:07:18.404Z,2.07
2022-10-07T18:12:39.768Z,2.57
2022-10-07T18:17:40.798Z,2.30
2022-10-07T18:22:43.403Z,3.40
2022-10-07T18:27:44.776Z,3.27
2022-10-07T18:32:46.201Z,2.90
2022-10-07T18:37:50.003Z,2.67
2022-10-07T18:42:51.782Z,2.10
2022-10-07T18:47:53.067Z,2.70
2022-10-07T18:52:54.422Z,3.40
2022-10-07T18:57:55.515Z,2.97
2022-10-07T19:02:56.688Z,2.90
2022-10-07T19:07:57.727Z,3.40
2022-10-07T19:13:20.636Z,3.40
2022-10-07T19:18:24.337Z,2.87
2022-10-07T19:23:26.906Z,3.33
2022-10-07T19:28:28.172Z,3.33
2022-10-07T19:33:29.239Z,3.33
2022-10-07T19:38:32.892Z,3.23
2022-10-07T19:43:34.505Z,2.77
2022-10-07T19:48:37.774Z,2.97
2022-10-07T19:53:45.891Z,3.27
2022-10-07T19:58:54.210Z,3.43
2022-10-07T20:04:03.617Z,2.97
2022-10-07T20:09:07.513Z,2.97
2022-10-07T20:14:09.317Z,3.40
2022-10-07T20:19:14.725Z,3.10
2022-10-07T20:24:16.448Z,3.83
2022-10-07T20:29:21.471Z,3.30
2022-10-07T20:34:26.040Z,3.60
2022-10-07T20:39:45.880Z,3.67
2022-10-07T20:44:48.462Z,3.40
2022-10-07T20:49:50.672Z,3.77
2022-10-07T20:54:52.829Z,2.93
2022-10-07T20:59:54.591Z,3.53
2022-10-07T21:04:55.874Z,3.37
2022-10-07T21:09:57.834Z,3.07
2022-10-07T21:15:00.357Z,3.70
2022-10-07T21:20:01.713Z,3.00
2022-10-07T21:25:03.412Z,3.97
2022-10-07T21:30:05.461Z,3.10
2022-10-07T21:35:07.138Z,3.20
2022-10-07T21:40:08.816Z,3.30
2022-10-07T21:45:10.072Z,3.00
2022-10-07T21:50:11.617Z,2.83
2022-10-07T21:55:12.950Z,3.03
2022-10-07T22:00:15.196Z,2.67
2022-10-07T22:05:16.342Z,3.73
2022-10-07T22:10:17.525Z,2.93
2022-10-07T22:15:19.583Z,3.63
2022-10-07T22:20:21.141Z,3.40
2022-10-07T22:25:23.229Z,2.90
2022-10-07T22:30:24.543Z,3.33
2022-10-07T22:35:33.114Z,3.20
2022-10-07T22:40:38.250Z,3.67
2022-10-07T22:45:39.343Z,2.93
2022-10-07T22:50:40.443Z,3.33
2022-10-07T22:55:41.773Z,2.87
2022-10-07T23:00:42.959Z,2.37
2022-10-07T23:05:44.306Z,2.83
2022-10-07T23:10:55.750Z,2.60
2022-10-07T23:16:01.394Z,3.33
2022-10-07T23:21:14.546Z,2.30
2022-10-07T23:26:25.481Z,2.57
2022-10-07T23:31:29.640Z,2.47
2022-10-07T23:36:32.358Z,2.67
2022-10-07T23:41:33.605Z,2.93
2022-10-07T23:46:35.551Z,2.30
2022-10-07T23:51:36.999Z,2.50
2022-10-07T23:56:38.061Z,2.50
